Time;durP1;ratioP1;P1;durP2;ratioP2;P2;SDS_P1;SDS_P2;PMS_P1;PMS_P2;Temp;Humidity;BMP_temperature;BMP_pressure;BME280_temperature;BME280_humidity;BME280_pressure;Samples;Min_cycle;Max_cycle;Signal;HPM_P1;HPM_P2
2023/04/27 00:00:28;;;;;;;;;;;;;;;-141.59;100.00;61776.25;5029052;28;19958;-79
2023/04/27 00:02:55;;;;;;;;;;;;;;;-141.59;100.00;61776.25;5018693;28;19965;-78
2023/04/27 00:05:22;;;;;;;;;;;;;;;-141.59;100.00;61776.25;5031724;28;19940;-79
2023/04/27 00:07:50;;;;;;;;;;;;;;;-141.59;100.00;61776.25;5039894;28;19983;-79
2023/04/27 00:10:17;;;;;;;;;;;;;;;-141.59;100.00;61776.25;5028212;28;20100;-80
2023/04/27 00:12:44;;;;;;;;;;;;;;;-141.59;100.00;61776.25;5050377;28;19952;-78
2023/04/27 00:15:10;;;;;;;;;;;;;;;-141.59;100.00;61776.25;5043421;28;19970;-79
2023/04/27 00:17:37;;;;;;;;;;;;;;;-141.59;100.00;61776.25;5032511;28;19950;-79
2023/04/27 00:20:07;;;;;;;;;;;;;;;-141.59;100.00;61776.25;5046636;28;19954;-78
2023/04/27 00:22:34;;;;;;;;;;;;;;;-141.59;100.00;61776.25;5044040;28;19949;-78
2023/04/27 00:25:02;;;;;;;;;;;;;;;-141.59;100.00;61776.25;5030944;28;19951;-79
2023/04/27 00:27:29;;;;;;;;;;;;;;;-141.59;100.00;61776.25;5030713;28;19950;-78
2023/04/27 00:29:55;;;;;;;;;;;;;;;-141.59;100.00;61776.25;5033172;28;19951;-78
2023/04/27 00:32:22;;;;;;;;;;;;;;;-141.59;100.00;61776.25;5039277;28;19978;-78
2023/04/27 00:34:49;;;;;;;;;;;;;;;-141.59;100.00;61776.25;5048858;28;19968;-78
2023/04/27 00:37:16;;;;;;;;;;;;;;;-141.59;100.00;61776.25;5026591;28;20034;-78
2023/04/27 00:39:42;;;;;;;;;;;;;;;-141.59;100.00;61776.25;5027901;28;19945;-79
2023/04/27 00:42:14;;;;;;;;;;;;;;;-141.59;100.00;61776.25;5044155;28;19953;-79
2023/04/27 00:44:41;;;;;;;;;;;;;;;-141.59;100.00;61776.25;5042766;28;19992;-78
2023/04/27 00:47:07;;;;;;;;;;;;;;;-141.59;100.00;61776.25;5031566;28;19948;-78
2023/04/27 00:49:34;;;;;;;;;;;;;;;-141.59;100.00;61776.25;5041979;28;19951;-78
2023/04/27 00:52:01;;;;;;;;;;;;;;;-141.59;100.00;61776.25;5028717;28;19955;-78
2023/04/27 00:54:28;;;;;;;;;;;;;;;-141.59;100.00;61776.25;5037968;28;19962;-78
2023/04/27 00:56:55;;;;;;;;;;;;;;;-141.59;100.00;61776.25;5041254;28;19948;-78
2023/04/27 00:59:24;;;;;;;;;;;;;;;-141.59;100.00;61776.25;5028540;28;19958;-78
2023/04/27 01:01:51;;;;;;;;;;;;;;;-141.59;100.00;61776.25;5044368;28;19970;-79
2023/04/27 01:04:20;;;;;;;;;;;;;;;-141.59;100.00;61776.25;5043646;28;19951;-78
2023/04/27 01:06:47;;;;;;;;;;;;;;;-141.59;100.00;61776.25;5027943;28;19948;-78
2023/04/27 01:09:15;;;;;;;;;;;;;;;-141.59;100.00;61776.25;5039137;28;19961;-78
2023/04/27 01:11:42;;;;;;;;;;;;;;;-141.59;100.00;61776.25;5043556;28;19949;-77
2023/04/27 01:14:09;;;;;;;;;;;;;;;-141.59;100.00;61776.25;5027986;28;19966;-78
2023/04/27 01:16:37;;;;;;;;;;;;;;;-141.59;100.00;61776.25;5035600;28;19953;-78
2023/04/27 01:19:04;;;;;;;;;;;;;;;-141.59;100.00;61776.25;5027767;28;19956;-78
2023/04/27 01:21:31;;;;;;;;;;;;;;;-141.59;100.00;61776.25;5028218;28;19949;-78
2023/04/27 01:23:59;;;;;;;;;;;;;;;-141.59;100.00;61776.25;5038725;28;19955;-80
2023/04/27 01:26:26;;;;;;;;;;;;;;;-141.59;100.00;61776.25;5041755;28;19954;-78
2023/04/27 01:28:53;;;;;;;;;;;;;;;-141.59;100.00;61776.25;5041566;28;20051;-79
2023/04/27 01:31:20;;;;;;;;;;;;;;;-141.59;100.00;61776.25;5022942;28;19969;-78
2023/04/27 01:33:46;;;;;;;;;;;;;;;-141.59;100.00;61776.25;5021326;28;19951;-80
2023/04/27 01:36:14;;;;;;;;;;;;;;;-141.59;100.00;61776.25;5024172;28;19971;-79
2023/04/27 01:38:41;;;;;;;;;;;;;;;-141.59;100.00;61776.25;5036810;28;19947;-78
2023/04/27 01:41:09;;;;;;;;;;;;;;;-141.59;100.00;61776.25;5028435;28;19945;-79
2023/04/27 01:43:36;;;;;;;;;;;;;;;-141.59;100.00;61776.25;5023178;28;19946;-78
2023/04/27 01:46:06;;;;;;;;;;;;;;;-141.59;100.00;61776.25;5041291;28;20045;-78
2023/04/27 01:48:33;;;;;;;;;;;;;;;-141.59;100.00;61776.25;5025326;28;20004;-78
2023/04/27 01:51:00;;;;;;;;;;;;;;;-141.59;100.00;61776.25;5044156;28;19954;-78
2023/04/27 01:53:27;;;;;;;;;;;;;;;-141.59;100.00;61776.25;5043637;28;19946;-77
2023/04/27 01:55:54;;;;;;;;;;;;;;;-141.59;100.00;61776.25;5014260;28;20138;-79
2023/04/27 01:58:22;;;;;;;;;;;;;;;-141.59;100.00;61776.25;5044238;28;19956;-78
2023/04/27 02:00:49;;;;;;;;;;;;;;;-141.59;100.00;61776.25;5037550;28;19948;-79
2023/04/27 02:03:15;;;;;;;;;;;;;;;-141.59;100.00;61776.25;5031190;28;20025;-78
2023/04/27 02:05:42;;;;;;;;;;;;;;;-141.59;100.00;61776.25;5027262;28;19945;-78
2023/04/27 02:08:09;;;;;;;;;;;;;;;-141.59;100.00;61776.25;5043410;28;19998;-78
2023/04/27 02:10:36;;;;;;;;;;;;;;;-141.59;100.00;61776.25;5023326;28;19949;-79
2023/04/27 02:13:03;;;;;;;;;;;;;;;-141.59;100.00;61776.25;5027236;28;19951;-78
2023/04/27 02:15:31;;;;;;;;;;;;;;;-141.59;100.00;61776.25;5042368;28;19998;-78
2023/04/27 02:17:58;;;;;;;;;;;;;;;-141.59;100.00;61776.25;5043367;28;20020;-78
2023/04/27 02:20:25;;;;;;;;;;;;;;;-141.59;100.00;61776.25;5039495;28;20050;-78
2023/04/27 02:22:53;;;;;;;;;;;;;;;-141.59;100.00;61776.25;5045647;28;20042;-78
2023/04/27 02:25:20;;;;;;;;;;;;;;;-141.59;100.00;61776.25;5027297;28;19947;-79
2023/04/27 02:27:47;;;;;;;;;;;;;;;-141.59;100.00;61776.25;5040800;28;21238;-78
2023/04/27 02:30:14;;;;;;;;;;;;;;;-141.59;100.00;61776.25;5031947;28;19947;-78
2023/04/27 02:32:42;;;;;;;;;;;;;;;-141.59;100.00;61776.25;5024557;28;19947;-78
2023/04/27 02:35:09;;;;;;;;;;;;;;;-141.59;100.00;61776.25;5032919;28;20328;-78
2023/04/27 02:37:36;;;;;;;;;;;;;;;-141.59;100.00;61776.25;5043343;28;19961;-78
2023/04/27 02:40:05;;;;;;;;;;;;;;;-141.59;100.00;61776.25;5041432;28;19951;-79
2023/04/27 02:42:32;;;;;;;;;;;;;;;-141.59;100.00;61776.25;5042321;28;19954;-79
2023/04/27 02:44:59;;;;;;;;;;;;;;;-141.59;100.00;61776.25;5036000;28;19950;-79
2023/04/27 02:47:26;;;;;;;;;;;;;;;-141.59;100.00;61776.25;5023676;28;19945;-78
2023/04/27 02:49:54;;;;;;;;;;;;;;;-141.59;100.00;61776.25;5039758;28;19950;-79
2023/04/27 02:52:21;;;;;;;;;;;;;;;-141.59;100.00;61776.25;5040254;28;19963;-78
2023/04/27 02:54:48;;;;;;;;;;;;;;;-141.59;100.00;61776.25;5030748;28;20253;-78
2023/04/27 02:57:15;;;;;;;;;;;;;;;-141.59;100.00;61776.25;5026529;28;20037;-79
2023/04/27 02:59:42;;;;;;;;;;;;;;;-141.59;100.00;61776.25;5029891;28;19947;-78
2023/04/27 03:02:09;;;;;;;;;;;;;;;-141.59;100.00;61776.25;5023517;28;19965;-78
2023/04/27 03:04:37;;;;;;;;;;;;;;;-141.59;100.00;61776.25;5025962;28;19959;-78
2023/04/27 03:07:05;;;;;;;;;;;;;;;-141.59;100.00;61776.25;5043560;28;20059;-78
2023/04/27 03:09:32;;;;;;;;;;;;;;;-141.59;100.00;61776.25;5026149;28;20009;-78
2023/04/27 03:11:59;;;;;;;;;;;;;;;-141.59;100.00;61776.25;5045474;28;19948;-78
2023/04/27 03:14:26;;;;;;;;;;;;;;;-141.59;100.00;61776.25;5033353;28;20069;-79
2023/04/27 03:16:54;;;;;;;;;;;;;;;-141.59;100.00;61776.25;5031670;28;19965;-78
2023/04/27 03:19:21;;;;;;;;;;;;;;;-141.59;100.00;61776.25;5046286;28;19945;-79
2023/04/27 03:21:50;;;;;;;;;;;;;;;-141.59;100.00;61776.25;5035272;28;19983;-78
2023/04/27 03:24:18;;;;;;;;;;;;;;;-141.59;100.00;61776.25;5046272;28;19955;-78
2023/04/27 03:26:45;;;;;;;;;;;;;;;-141.59;100.00;61776.25;5027039;28;20310;-78
2023/04/27 03:29:11;;;;;;;;;;;;;;;-141.59;100.00;61776.25;5032436;28;19954;-78
2023/04/27 03:31:38;;;;;;;;;;;;;;;-141.59;100.00;61776.25;5030533;28;19952;-78
2023/04/27 03:34:05;;;;;;;;;;;;;;;-141.59;100.00;61776.25;5042890;28;20011;-78
2023/04/27 03:36:32;;;;;;;;;;;;;;;-141.59;100.00;61776.25;5048281;28;19958;-78
2023/04/27 03:38:58;;;;;;;;;;;;;;;-141.59;100.00;61776.25;5028256;28;19941;-78
2023/04/27 03:41:27;;;;;;;;;;;;;;;-141.59;100.00;61776.25;5047887;28;19996;-78
2023/04/27 03:43:53;;;;;;;;;;;;;;;-141.59;100.00;61776.25;5021678;28;20052;-78
2023/04/27 03:46:20;;;;;;;;;;;;;;;-141.59;100.00;61776.25;5040159;28;19947;-78
2023/04/27 03:48:47;;;;;;;;;;;;;;;-141.59;100.00;61776.25;5042630;28;19951;-79
2023/04/27 03:51:15;;;;;;;;;;;;;;;-141.59;100.00;61776.25;5046097;28;19940;-78
2023/04/27 03:53:44;;;;;;;;;;;;;;;-141.59;100.00;61776.25;5044022;28;19946;-80
2023/04/27 03:56:11;;;;;;;;;;;;;;;-141.59;100.00;61776.25;5028182;28;19961;-78
2023/04/27 03:58:39;;;;;;;;;;;;;;;-141.59;100.00;61776.25;5044432;28;19955;-78
2023/04/27 04:01:17;;;;;;;;;;;;;;;-141.59;100.00;61776.25;5042537;28;19964;-78
2023/04/27 04:03:46;;;;;;;;;;;;;;;-141.59;100.00;61776.25;5028991;28;19952;-78
2023/04/27 04:06:13;;;;;;;;;;;;;;;-141.59;100.00;61776.25;5026440;28;20248;-78
2023/04/27 04:08:39;;;;;;;;;;;;;;;-141.59;100.00;61776.25;5047408;28;19949;-78
2023/04/27 04:11:06;;;;;;;;;;;;;;;-141.59;100.00;61776.25;5027591;28;19952;-78
2023/04/27 04:13:35;;;;;;;;;;;;;;;-141.59;100.00;61776.25;5044475;28;19962;-78
2023/04/27 04:16:05;;;;;;;;;;;;;;;-141.59;100.00;61776.25;5028848;28;19967;-78
2023/04/27 04:18:32;;;;;;;;;;;;;;;-141.59;100.00;61776.25;5020837;28;19954;-78
2023/04/27 04:20:59;;;;;;;;;;;;;;;-141.59;100.00;61776.25;5044260;28;19945;-78
2023/04/27 04:23:26;;;;;;;;;;;;;;;-141.59;100.00;61776.25;5046619;28;20053;-78
2023/04/27 04:25:55;;;;;;;;;;;;;;;-141.59;100.00;61776.25;5046965;28;19950;-78
2023/04/27 04:28:22;;;;;;;;;;;;;;;-141.59;100.00;61776.25;5045597;28;20067;-78
2023/04/27 04:30:49;;;;;;;;;;;;;;;-141.59;100.00;61776.25;5042481;28;19977;-78
2023/04/27 04:33:19;;;;;;;;;;;;;;;-141.59;100.00;61776.25;5041219;28;19943;-78
2023/04/27 04:35:45;;;;;;;;;;;;;;;-141.59;100.00;61776.25;5044447;28;19967;-78
2023/04/27 04:38:12;;;;;;;;;;;;;;;-141.59;100.00;61776.25;5027832;28;19959;-79
2023/04/27 04:40:40;;;;;;;;;;;;;;;-141.59;100.00;61776.25;5043530;28;19956;-78
2023/04/27 04:43:07;;;;;;;;;;;;;;;-141.59;100.00;61776.25;5028734;28;19970;-78
2023/04/27 04:45:34;;;;;;;;;;;;;;;-141.59;100.00;61776.25;5045745;28;19956;-79
2023/04/27 04:48:00;;;;;;;;;;;;;;;-141.59;100.00;61776.25;5046220;28;19942;-78
2023/04/27 04:50:29;;;;;;;;;;;;;;;-141.59;100.00;61776.25;5027098;28;19949;-78
2023/04/27 04:52:56;;;;;;;;;;;;;;;-141.59;100.00;61776.25;5027237;28;19954;-78
2023/04/27 04:55:22;;;;;;;;;;;;;;;-141.59;100.00;61776.25;5023816;28;19961;-78
2023/04/27 04:57:49;;;;;;;;;;;;;;;-141.59;100.00;61776.25;5029977;28;19954;-78
2023/04/27 05:00:16;;;;;;;;;;;;;;;-141.59;100.00;61776.25;5020375;28;19950;-78
2023/04/27 05:02:43;;;;;;;;;;;;;;;-141.59;100.00;61776.25;5027620;28;20030;-79
2023/04/27 05:05:10;;;;;;;;;;;;;;;-141.59;100.00;61776.25;5026485;28;19958;-78
2023/04/27 05:07:38;;;;;;;;;;;;;;;-141.59;100.00;61776.25;5026337;28;19947;-78
2023/04/27 05:10:05;;;;;;;;;;;;;;;-141.59;100.00;61776.25;5023739;28;19946;-78
2023/04/27 05:12:32;;;;;;;;;;;;;;;-141.59;100.00;61776.25;5043854;28;19979;-79
2023/04/27 05:14:59;;;;;;;;;;;;;;;-141.59;100.00;61776.25;5027872;28;20060;-78
2023/04/27 05:17:26;;;;;;;;;;;;;;;-141.59;100.00;61776.25;5043981;28;20052;-78
2023/04/27 05:19:52;;;;;;;;;;;;;;;-141.59;100.00;61776.25;5049465;28;19945;-78
2023/04/27 05:22:19;;;;;;;;;;;;;;;-141.59;100.00;61776.25;5043050;28;20044;-78
2023/04/27 05:24:47;;;;;;;;;;;;;;;-141.59;100.00;61776.25;5034692;28;20209;-78
2023/04/27 05:27:14;;;;;;;;;;;;;;;-141.59;100.00;61776.25;5027301;28;20102;-79
2023/04/27 05:29:41;;;;;;;;;;;;;;;-141.59;100.00;61776.25;5043422;28;19942;-78
2023/04/27 05:32:08;;;;;;;;;;;;;;;-141.59;100.00;61776.25;5043642;28;19946;-78
2023/04/27 05:34:35;;;;;;;;;;;;;;;-141.59;100.00;61776.25;5024436;28;19949;-79
2023/04/27 05:37:02;;;;;;;;;;;;;;;-141.59;100.00;61776.25;5040565;28;19966;-78
2023/04/27 05:39:28;;;;;;;;;;;;;;;-141.59;100.00;61776.25;5027696;28;19999;-80
2023/04/27 05:41:58;;;;;;;;;;;;;;;-141.59;100.00;61776.25;5042550;28;19942;-78
2023/04/27 05:44:27;;;;;;;;;;;;;;;-141.59;100.00;61776.25;5026851;28;19964;-78
2023/04/27 05:46:54;;;;;;;;;;;;;;;-141.59;100.00;61776.25;5027019;28;19947;-78
2023/04/27 05:49:21;;;;;;;;;;;;;;;-141.59;100.00;61776.25;5029237;28;19953;-79
2023/04/27 05:51:48;;;;;;;;;;;;;;;-141.59;100.00;61776.25;5026247;28;19945;-78
2023/04/27 05:54:15;;;;;;;;;;;;;;;-141.59;100.00;61776.25;5043702;28;19954;-79
2023/04/27 05:56:41;;;;;;;;;;;;;;;-141.59;100.00;61776.25;5024870;28;20059;-79
2023/04/27 05:59:10;;;;;;;;;;;;;;;-141.59;100.00;61776.25;5036654;28;19945;-79
2023/04/27 06:01:37;;;;;;;;;;;;;;;-141.59;100.00;61776.25;5043193;28;20134;-78
2023/04/27 06:04:03;;;;;;;;;;;;;;;-141.59;100.00;61776.25;5028820;28;20054;-79
2023/04/27 06:06:31;;;;;;;;;;;;;;;-141.59;100.00;61776.25;5040141;28;19946;-79
2023/04/27 06:08:58;;;;;;;;;;;;;;;-141.59;100.00;61776.25;5028183;28;19994;-78
2023/04/27 06:11:25;;;;;;;;;;;;;;;-141.59;100.00;61776.25;5026621;28;19991;-79
2023/04/27 06:13:51;;;;;;;;;;;;;;;-141.59;100.00;61776.25;5039958;28;19970;-78
2023/04/27 06:16:20;;;;;;;;;;;;;;;-141.59;100.00;61776.25;5019682;28;19963;-79
2023/04/27 06:18:47;;;;;;;;;;;;;;;-141.59;100.00;61776.25;5041563;28;19952;-83
2023/04/27 06:21:14;;;;;;;;;;;;;;;-141.59;100.00;61776.25;5025864;28;19950;-82
2023/04/27 06:23:40;;;;;;;;;;;;;;;-141.59;100.00;61776.25;5028745;28;19955;-84
2023/04/27 06:26:07;;;;;;;;;;;;;;;-141.59;100.00;61776.25;5044735;28;19982;-84
2023/04/27 06:28:34;;;;;;;;;;;;;;;-141.59;100.00;61776.25;5027663;28;19951;-82
2023/04/27 06:31:01;;;;;;;;;;;;;;;-141.59;100.00;61776.25;5019468;28;19954;-84
2023/04/27 06:33:29;;;;;;;;;;;;;;;-141.59;100.00;61776.25;5028578;28;19958;-83
2023/04/27 06:35:56;;;;;;;;;;;;;;;-141.59;100.00;61776.25;5028583;28;19955;-84
2023/04/27 06:38:22;;;;;;;;;;;;;;;-141.59;100.00;61776.25;5029609;28;19949;-83
2023/04/27 06:40:50;;;;;;;;;;;;;;;-141.59;100.00;61776.25;5028966;28;19955;-84
2023/04/27 06:43:17;;;;;;;;;;;;;;;-141.59;100.00;61776.25;5039616;28;19947;-84
2023/04/27 06:45:43;;;;;;;;;;;;;;;-141.59;100.00;61776.25;5057894;28;19988;-84
2023/04/27 06:48:10;;;;;;;;;;;;;;;-141.59;100.00;61776.25;5049806;28;19952;-84
2023/04/27 06:50:38;;;;;;;;;;;;;;;-141.59;100.00;61776.25;5050250;28;19984;-84
2023/04/27 06:53:05;;;;;;;;;;;;;;;-141.59;100.00;61776.25;5047310;28;19956;-83
2023/04/27 06:55:32;;;;;;;;;;;;;;;-141.59;100.00;61776.25;5048164;28;19945;-84
2023/04/27 06:57:59;;;;;;;;;;;;;;;-141.59;100.00;61776.25;5024759;28;19966;-84
2023/04/27 07:00:26;;;;;;;;;;;;;;;-141.59;100.00;61776.25;5024975;28;19942;-83
2023/04/27 07:02:53;;;;;;;;;;;;;;;-141.59;100.00;61776.25;5031753;28;19997;-83
2023/04/27 07:05:20;;;;;;;;;;;;;;;-141.59;100.00;61776.25;5030635;28;20004;-84
2023/04/27 07:07:48;;;;;;;;;;;;;;;-141.59;100.00;61776.25;5040876;28;19947;-83
2023/04/27 07:10:15;;;;;;;;;;;;;;;-141.59;100.00;61776.25;5026800;28;19991;-83
2023/04/27 07:12:42;;;;;;;;;;;;;;;-141.59;100.00;61776.25;5028210;28;19949;-84
2023/04/27 07:15:09;;;;;;;;;;;;;;;-141.59;100.00;61776.25;5046617;28;19983;-83
2023/04/27 07:17:36;;;;;;;;;;;;;;;-141.59;100.00;61776.25;5049791;28;19963;-84
2023/04/27 07:20:04;;;;;;;;;;;;;;;-141.59;100.00;61776.25;5032781;28;19954;-83
2023/04/27 07:22:31;;;;;;;;;;;;;;;-141.59;100.00;61776.25;5029209;28;19992;-83
2023/04/27 07:24:59;;;;;;;;;;;;;;;-141.59;100.00;61776.25;5028129;28;20236;-84
2023/04/27 07:27:26;;;;;;;;;;;;;;;-141.59;100.00;61776.25;5046595;28;19973;-82
2023/04/27 07:29:53;;;;;;;;;;;;;;;-141.59;100.00;61776.25;5050725;28;19950;-83
2023/04/27 07:32:20;;;;;;;;;;;;;;;-141.59;100.00;61776.25;5030319;28;19956;-83
2023/04/27 07:34:49;;;;;;;;;;;;;;;-141.59;100.00;61776.25;5047386;28;19944;-83
2023/04/27 07:37:16;;;;;;;;;;;;;;;-141.59;100.00;61776.25;5033199;28;20057;-83
2023/04/27 07:39:43;;;;;;;;;;;;;;;-141.59;100.00;61776.25;5030719;28;19977;-83
2023/04/27 07:42:11;;;;;;;;;;;;;;;-141.59;100.00;61776.25;5024890;28;19946;-83
2023/04/27 07:44:38;;;;;;;;;;;;;;;-141.59;100.00;61776.25;5017648;28;19954;-83
2023/04/27 07:47:05;;;;;;;;;;;;;;;-141.59;100.00;61776.25;5030874;28;19952;-83
2023/04/27 07:49:31;;;;;;;;;;;;;;;-141.59;100.00;61776.25;5029307;28;19959;-83
2023/04/27 07:51:58;;;;;;;;;;;;;;;-141.59;100.00;61776.25;5049384;28;19971;-83
2023/04/27 07:54:25;;;;;;;;;;;;;;;-141.59;100.00;61776.25;5032084;28;19944;-83
2023/04/27 07:56:52;;;;;;;;;;;;;;;-141.59;100.00;61776.25;5041523;28;19960;-83
2023/04/27 07:59:20;;;;;;;;;;;;;;;-141.59;100.00;61776.25;5027914;28;19982;-82
2023/04/27 08:01:47;;;;;;;;;;;;;;;-141.59;100.00;61776.25;5031715;28;19970;-83
2023/04/27 08:04:14;;;;;;;;;;;;;;;-141.59;100.00;61776.25;5030015;28;19949;-82
2023/04/27 08:06:41;;;;;;;;;;;;;;;-141.59;100.00;61776.25;5031471;28;19960;-83
2023/04/27 08:09:08;;;;;;;;;;;;;;;-141.59;100.00;61776.25;5047266;28;19989;-83
2023/04/27 08:11:35;;;;;;;;;;;;;;;-141.59;100.00;61776.25;5042162;28;19982;-83
2023/04/27 08:14:01;;;;;;;;;;;;;;;-141.59;100.00;61776.25;5047627;28;19973;-84
2023/04/27 08:16:30;;;;;;;;;;;;;;;-141.59;100.00;61776.25;5042746;28;19949;-83
2023/04/27 08:18:57;;;;;;;;;;;;;;;-141.59;100.00;61776.25;5029219;28;19949;-83
2023/04/27 08:21:23;;;;;;;;;;;;;;;-141.59;100.00;61776.25;5046924;28;19941;-82
2023/04/27 08:23:50;;;;;;;;;;;;;;;-141.59;100.00;61776.25;5035706;28;19957;-83
2023/04/27 08:26:17;;;;;;;;;;;;;;;-141.59;100.00;61776.25;5031934;28;19981;-82
2023/04/27 08:28:44;;;;;;;;;;;;;;;-141.59;100.00;61776.25;5044964;28;19949;-83
2023/04/27 08:31:10;;;;;;;;;;;;;;;-141.59;100.00;61776.25;5029969;28;19949;-83
2023/04/27 08:33:39;;;;;;;;;;;;;;;-141.59;100.00;61776.25;5028107;28;19995;-84
2023/04/27 08:36:06;;;;;;;;;;;;;;;-141.59;100.00;61776.25;5032771;28;19949;-83
2023/04/27 08:38:33;;;;;;;;;;;;;;;-141.59;100.00;61776.25;5031503;28;19961;-84
2023/04/27 08:41:00;;;;;;;;;;;;;;;-141.59;100.00;61776.25;5025733;28;19946;-83
2023/04/27 08:43:27;;;;;;;;;;;;;;;-141.59;100.00;61776.25;5044466;28;19948;-82
2023/04/27 08:45:54;;;;;;;;;;;;;;;-141.59;100.00;61776.25;5042394;28;19948;-83
2023/04/27 08:48:21;;;;;;;;;;;;;;;-141.59;100.00;61776.25;5048104;28;19939;-83
2023/04/27 08:50:50;;;;;;;;;;;;;;;-141.59;100.00;61776.25;5043376;28;19944;-83
2023/04/27 08:53:17;;;;;;;;;;;;;;;-141.59;100.00;61776.25;5030448;28;19947;-84
2023/04/27 08:55:44;;;;;;;;;;;;;;;-141.59;100.00;61776.25;5043086;28;19947;-84
2023/04/27 08:58:11;;;;;;;;;;;;;;;-141.59;100.00;61776.25;5044820;28;19965;-84
2023/04/27 09:00:38;;;;;;;;;;;;;;;-141.59;100.00;61776.25;5030578;28;19942;-84
2023/04/27 09:03:06;;;;;;;;;;;;;;;-141.59;100.00;61776.25;5042991;28;20019;-84
2023/04/27 09:05:33;;;;;;;;;;;;;;;-141.59;100.00;61776.25;5041274;28;20040;-83
2023/04/27 09:08:05;;;;;;;;;;;;;;;-141.59;100.00;61776.25;5028111;28;19945;-84
2023/04/27 09:10:43;;;;;;;;;;;;;;;-141.59;100.00;61776.25;5027143;28;19945;-84
2023/04/27 09:13:10;;;;;;;;;;;;;;;-141.59;100.00;61776.25;5045018;28;19978;-84
2023/04/27 09:15:41;;;;;;;;;;;;;;;-141.59;100.00;61776.25;5044585;28;19979;-83
2023/04/27 09:18:12;;;;;;;;;;;;;;;-141.59;100.00;61776.25;5032158;28;20013;-83
2023/04/27 09:20:48;;;;;;;;;;;;;;;-141.59;100.00;61776.25;5028878;28;19949;-83
2023/04/27 09:23:29;;;;;;;;;;;;;;;-141.59;100.00;61776.25;5043478;28;19952;-83
2023/04/27 09:25:56;;;;;;;;;;;;;;;-141.59;100.00;61776.25;5025325;28;19952;-83
2023/04/27 09:28:27;;;;;;;;;;;;;;;-141.59;100.00;61776.25;5030107;28;19987;-83
2023/04/27 09:30:59;;;;;;;;;;;;;;;-141.59;100.00;61776.25;5029317;28;19940;-82
2023/04/27 09:33:56;;;;;;;;;;;;;;;-141.59;100.00;61776.25;5030810;28;19944;-83
2023/04/27 09:36:44;;;;;;;;;;;;;;;-141.59;100.00;61776.25;5048629;28;19989;-82
2023/04/27 09:39:24;;;;;;;;;;;;;;;-141.59;100.00;61776.25;5041391;28;19947;-83
2023/04/27 09:42:03;;;;;;;;;;;;;;;-141.59;100.00;61776.25;5027839;28;19951;-82
2023/04/27 09:44:34;;;;;;;;;;;;;;;-141.59;100.00;61776.25;5028762;28;19955;-83
2023/04/27 09:47:10;;;;;;;;;;;;;;;-141.59;100.00;61776.25;5037832;28;19956;-83
2023/04/27 09:49:41;;;;;;;;;;;;;;;-141.59;100.00;61776.25;5038898;28;19952;-84
2023/04/27 09:52:10;;;;;;;;;;;;;;;-141.59;100.00;61776.25;5039902;28;20010;-83
2023/04/27 09:54:39;;;;;;;;;;;;;;;-141.59;100.00;61776.25;5045789;28;19939;-83
2023/04/27 09:57:17;;;;;;;;;;;;;;;-141.59;100.00;61776.25;5042215;28;19952;-84
2023/04/27 10:00:06;;;;;;;;;;;;;;;-141.59;100.00;61776.25;5027308;28;19977;-83
2023/04/27 10:02:44;;;;;;;;;;;;;;;-141.59;100.00;61776.25;5042395;28;20064;-83
2023/04/27 10:05:37;;;;;;;;;;;;;;;-141.59;100.00;61776.25;5022930;28;19997;-83
2023/04/27 10:08:10;;;;;;;;;;;;;;;-141.59;100.00;61776.25;5020240;28;19972;-83
2023/04/27 10:10:47;;;;;;;;;;;;;;;-141.59;100.00;61776.25;5032575;28;19951;-83
2023/04/27 10:13:22;;;;;;;;;;;;;;;-141.59;100.00;61776.25;5031642;28;19945;-83
2023/04/27 10:15:51;;;;;;;;;;;;;;;-141.59;100.00;61776.25;5043686;28;19953;-83
2023/04/27 10:18:29;;;;;;;;;;;;;;;-141.59;100.00;61776.25;5027608;28;19969;-84
2023/04/27 10:20:56;;;;;;;;;;;;;;;-141.59;100.00;61776.25;5038504;28;20238;-84
2023/04/27 10:23:49;;;;;;;;;;;;;;;-141.59;100.00;61776.25;5026879;28;19945;-84
2023/04/27 10:26:31;;;;;;;;;;;;;;;-141.59;100.00;61776.25;5034243;28;19969;-84
2023/04/27 10:29:07;;;;;;;;;;;;;;;-141.59;100.00;61776.25;5030361;28;19952;-83
2023/04/27 10:37:14;;;;;;;;;;;;;;;-141.59;100.00;61776.25;5045093;28;19949;-84
2023/04/27 10:39:51;;;;;;;;;;;;;;;-141.59;100.00;61776.25;5043502;28;19949;-85
2023/04/27 10:42:48;;;;;;;;;;;;;;;-141.59;100.00;61776.25;5050099;28;19975;-85
2023/04/27 10:48:49;;;;;;;;;;;;;;;-141.59;100.00;61776.25;4948835;28;19982;-85
2023/04/27 10:51:26;;;;;;;;;;;;;;;-141.59;100.00;61776.25;4951991;28;19950;-84
2023/04/27 10:53:53;;;;;;;;;;;;;;;-141.59;100.00;61776.25;4948463;28;19983;-83
2023/04/27 10:56:20;;;;;;;;;;;;;;;-141.59;100.00;61776.25;4953752;28;19954;-83
2023/04/27 10:58:47;;;;;;;;;;;;;;;-141.59;100.00;61776.25;5021303;28;20006;-82
2023/04/27 11:01:23;;;;;;;;;;;;;;;-141.59;100.00;61776.25;5046497;28;19952;-83
2023/04/27 11:03:56;;;;;;;;;;;;;;;-141.59;100.00;61776.25;5031636;28;19942;-83
2023/04/27 11:06:23;;;;;;;;;;;;;;;-141.59;100.00;61776.25;5027325;28;19950;-83
2023/04/27 11:08:50;;;;;;;;;;;;;;;-141.59;100.00;61776.25;5030560;28;19957;-83
2023/04/27 11:11:17;;;;;;;;;;;;;;;-141.59;100.00;61776.25;5043160;28;19944;-83
2023/04/27 11:13:44;;;;;;;;;;;;;;;-141.59;100.00;61776.25;5047924;28;19963;-83
2023/04/27 11:16:10;;;;;;;;;;;;;;;-141.59;100.00;61776.25;5051570;28;20008;-83
2023/04/27 11:18:38;;;;;;;;;;;;;;;-141.59;100.00;61776.25;5035416;28;19962;-83
2023/04/27 11:21:10;;;;;;;;;;;;;;;-141.59;100.00;61776.25;5030866;28;19948;-83
2023/04/27 11:23:37;;;;;;;;;;;;;;;-141.59;100.00;61776.25;5030697;28;19948;-84
2023/04/27 11:26:09;;;;;;;;;;;;;;;-141.59;100.00;61776.25;5026142;28;19960;-84
2023/04/27 11:28:36;;;;;;;;;;;;;;;-141.59;100.00;61776.25;5037201;28;20056;-84
2023/04/27 11:31:03;;;;;;;;;;;;;;;-141.59;100.00;61776.25;5031333;28;19941;-84
2023/04/27 11:33:30;;;;;;;;;;;;;;;-141.59;100.00;61776.25;5034129;28;19952;-84
2023/04/27 11:35:57;;;;;;;;;;;;;;;-141.59;100.00;61776.25;5047226;28;19974;-83
2023/04/27 11:38:26;;;;;;;;;;;;;;;-141.59;100.00;61776.25;5033438;28;19963;-84
2023/04/27 11:41:05;;;;;;;;;;;;;;;-141.59;100.00;61776.25;5040111;28;20253;-83
2023/04/27 11:43:32;;;;;;;;;;;;;;;-141.59;100.00;61776.25;5015872;28;19972;-84
2023/04/27 11:46:02;;;;;;;;;;;;;;;-141.59;100.00;61776.25;5032900;28;19951;-83
2023/04/27 11:48:29;;;;;;;;;;;;;;;-141.59;100.00;61776.25;5024837;28;19984;-83
2023/04/27 11:50:57;;;;;;;;;;;;;;;-141.59;100.00;61776.25;5047842;28;19948;-84
2023/04/27 11:53:32;;;;;;;;;;;;;;;-141.59;100.00;61776.25;5032513;28;19950;-83
2023/04/27 11:56:00;;;;;;;;;;;;;;;-141.59;100.00;61776.25;5036341;28;19947;-83
2023/04/27 11:58:27;;;;;;;;;;;;;;;-141.59;100.00;61776.25;5031998;28;20033;-84
2023/04/27 12:00:56;;;;;;;;;;;;;;;-141.59;100.00;61776.25;5048153;28;20035;-83
2023/04/27 12:03:22;;;;;;;;;;;;;;;-141.59;100.00;61776.25;5031872;28;19978;-84
2023/04/27 12:05:50;;;;;;;;;;;;;;;-141.59;100.00;61776.25;5030574;28;19959;-83
2023/04/27 12:08:16;;;;;;;;;;;;;;;-141.59;100.00;61776.25;5051819;28;19953;-84
2023/04/27 12:10:45;;;;;;;;;;;;;;;-141.59;100.00;61776.25;5032498;28;19949;-84
2023/04/27 12:13:13;;;;;;;;;;;;;;;-141.59;100.00;61776.25;5045347;28;20032;-84
2023/04/27 12:15:40;;;;;;;;;;;;;;;-141.59;100.00;61776.25;5031905;28;19949;-84
2023/04/27 12:18:06;;;;;;;;;;;;;;;-141.59;100.00;61776.25;5030924;28;19965;-84
2023/04/27 12:20:33;;;;;;;;;;;;;;;-141.59;100.00;61776.25;5033189;28;19951;-84
2023/04/27 12:23:00;;;;;;;;;;;;;;;-141.59;100.00;61776.25;5032251;28;19961;-84
2023/04/27 12:25:27;;;;;;;;;;;;;;;-141.59;100.00;61776.25;5051581;28;19992;-84
2023/04/27 12:27:55;;;;;;;;;;;;;;;-141.59;100.00;61776.25;5048996;28;19950;-83
2023/04/27 12:30:23;;;;;;;;;;;;;;;-141.59;100.00;61776.25;5042846;28;19955;-84
2023/04/27 12:32:49;;;;;;;;;;;;;;;-141.59;100.00;61776.25;5040779;28;19957;-84